sensor_id;sensor_type;location;lat;lon;timestamp;P1;durP1;ratioP1;P2;durP2;ratioP2
16845;SDS011;8539;53.188;8.696;2024-01-06T00:02:06;13.60;;;10.75;;
16845;SDS011;8539;53.188;8.696;2024-01-06T00:04:32;15.77;;;10.77;;
16845;SDS011;8539;53.188;8.696;2024-01-06T00:06:58;15.18;;;9.80;;
16845;SDS011;8539;53.188;8.696;2024-01-06T00:09:24;17.15;;;9.25;;
16845;SDS011;8539;53.188;8.696;2024-01-06T00:11:50;17.08;;;10.60;;
16845;SDS011;8539;53.188;8.696;2024-01-06T00:14:16;16.05;;;9.07;;
16845;SDS011;8539;53.188;8.696;2024-01-06T00:16:42;16.77;;;10.23;;
16845;SDS011;8539;53.188;8.696;2024-01-06T00:19:08;14.93;;;10.00;;
16845;SDS011;8539;53.188;8.696;2024-01-06T00:21:34;16.02;;;9.77;;
16845;SDS011;8539;53.188;8.696;2024-01-06T00:24:00;12.05;;;9.13;;
16845;SDS011;8539;53.188;8.696;2024-01-06T00:26:26;14.88;;;9.75;;
16845;SDS011;8539;53.188;8.696;2024-01-06T00:28:52;16.42;;;10.68;;
16845;SDS011;8539;53.188;8.696;2024-01-06T00:31:18;15.63;;;10.40;;
16845;SDS011;8539;53.188;8.696;2024-01-06T00:33:45;14.48;;;9.27;;
16845;SDS011;8539;53.188;8.696;2024-01-06T00:36:11;14.57;;;9.50;;
16845;SDS011;8539;53.188;8.696;2024-01-06T00:38:37;12.05;;;8.27;;
16845;SDS011;8539;53.188;8.696;2024-01-06T00:41:04;18.40;;;9.98;;
16845;SDS011;8539;53.188;8.696;2024-01-06T00:43:30;11.98;;;8.65;;
16845;SDS011;8539;53.188;8.696;2024-01-06T00:45:56;15.82;;;10.13;;
16845;SDS011;8539;53.188;8.696;2024-01-06T00:48:22;15.77;;;10.27;;
16845;SDS011;8539;53.188;8.696;2024-01-06T00:50:47;14.85;;;10.68;;
16845;SDS011;8539;53.188;8.696;2024-01-06T00:53:13;17.02;;;11.23;;
16845;SDS011;8539;53.188;8.696;2024-01-06T00:55:39;15.75;;;10.57;;
16845;SDS011;8539;53.188;8.696;2024-01-06T00:58:05;14.65;;;10.18;;
16845;SDS011;8539;53.188;8.696;2024-01-06T01:00:31;14.60;;;10.43;;
16845;SDS011;8539;53.188;8.696;2024-01-06T01:02:58;13.38;;;9.85;;
16845;SDS011;8539;53.188;8.696;2024-01-06T01:05:24;13.98;;;9.00;;
16845;SDS011;8539;53.188;8.696;2024-01-06T01:07:51;14.35;;;9.70;;
16845;SDS011;8539;53.188;8.696;2024-01-06T01:10:17;16.75;;;9.25;;
16845;SDS011;8539;53.188;8.696;2024-01-06T01:12:43;10.98;;;8.48;;
16845;SDS011;8539;53.188;8.696;2024-01-06T01:15:10;17.13;;;10.27;;
16845;SDS011;8539;53.188;8.696;2024-01-06T01:17:37;15.82;;;9.90;;
16845;SDS011;8539;53.188;8.696;2024-01-06T01:20:03;10.95;;;8.27;;
16845;SDS011;8539;53.188;8.696;2024-01-06T01:22:30;13.73;;;9.63;;
16845;SDS011;8539;53.188;8.696;2024-01-06T01:24:57;14.85;;;8.75;;
16845;SDS011;8539;53.188;8.696;2024-01-06T01:27:23;12.50;;;8.73;;
16845;SDS011;8539;53.188;8.696;2024-01-06T01:29:49;14.80;;;8.45;;
16845;SDS011;8539;53.188;8.696;2024-01-06T01:32:18;14.40;;;8.45;;
16845;SDS011;8539;53.188;8.696;2024-01-06T01:34:44;11.95;;;8.98;;
16845;SDS011;8539;53.188;8.696;2024-01-06T01:37:11;10.55;;;7.80;;
16845;SDS011;8539;53.188;8.696;2024-01-06T01:39:38;14.93;;;8.50;;
16845;SDS011;8539;53.188;8.696;2024-01-06T01:42:04;10.35;;;7.70;;
16845;SDS011;8539;53.188;8.696;2024-01-06T01:44:31;12.50;;;7.75;;
16845;SDS011;8539;53.188;8.696;2024-01-06T01:46:57;14.85;;;8.70;;
16845;SDS011;8539;53.188;8.696;2024-01-06T01:49:25;12.32;;;8.38;;
16845;SDS011;8539;53.188;8.696;2024-01-06T01:51:51;14.65;;;8.95;;
16845;SDS011;8539;53.188;8.696;2024-01-06T01:54:18;12.95;;;8.30;;
16845;SDS011;8539;53.188;8.696;2024-01-06T01:56:44;11.00;;;8.48;;
16845;SDS011;8539;53.188;8.696;2024-01-06T01:59:11;11.45;;;8.38;;
16845;SDS011;8539;53.188;8.696;2024-01-06T02:01:39;12.85;;;8.10;;
16845;SDS011;8539;53.188;8.696;2024-01-06T02:04:09;12.23;;;9.18;;
16845;SDS011;8539;53.188;8.696;2024-01-06T02:06:36;14.75;;;9.35;;
16845;SDS011;8539;53.188;8.696;2024-01-06T02:09:02;10.52;;;8.25;;
16845;SDS011;8539;53.188;8.696;2024-01-06T02:11:28;13.15;;;7.65;;
16845;SDS011;8539;53.188;8.696;2024-01-06T02:13:54;12.48;;;7.95;;
16845;SDS011;8539;53.188;8.696;2024-01-06T02:16:21;11.00;;;8.43;;
16845;SDS011;8539;53.188;8.696;2024-01-06T02:18:47;12.50;;;9.07;;
16845;SDS011;8539;53.188;8.696;2024-01-06T02:21:13;13.88;;;8.50;;
16845;SDS011;8539;53.188;8.696;2024-01-06T02:23:40;13.95;;;9.07;;
16845;SDS011;8539;53.188;8.696;2024-01-06T02:26:07;11.63;;;8.70;;
16845;SDS011;8539;53.188;8.696;2024-01-06T02:28:33;13.25;;;8.93;;
16845;SDS011;8539;53.188;8.696;2024-01-06T02:30:59;10.52;;;8.23;;
16845;SDS011;8539;53.188;8.696;2024-01-06T02:33:25;12.75;;;8.75;;
16845;SDS011;8539;53.188;8.696;2024-01-06T02:35:51;14.10;;;9.10;;
16845;SDS011;8539;53.188;8.696;2024-01-06T02:38:17;12.82;;;9.02;;
16845;SDS011;8539;53.188;8.696;2024-01-06T02:40:43;11.73;;;8.70;;
16845;SDS011;8539;53.188;8.696;2024-01-06T02:43:09;15.23;;;9.73;;
16845;SDS011;8539;53.188;8.696;2024-01-06T02:45:35;12.02;;;8.75;;
16845;SDS011;8539;53.188;8.696;2024-01-06T02:48:01;14.68;;;9.27;;
16845;SDS011;8539;53.188;8.696;2024-01-06T02:50:27;14.18;;;8.75;;
16845;SDS011;8539;53.188;8.696;2024-01-06T02:52:53;11.40;;;8.15;;
16845;SDS011;8539;53.188;8.696;2024-01-06T02:55:19;12.57;;;8.45;;
16845;SDS011;8539;53.188;8.696;2024-01-06T02:57:45;17.95;;;9.13;;
16845;SDS011;8539;53.188;8.696;2024-01-06T03:00:11;13.73;;;9.45;;
16845;SDS011;8539;53.188;8.696;2024-01-06T03:02:38;13.27;;;8.48;;
16845;SDS011;8539;53.188;8.696;2024-01-06T03:05:07;10.43;;;7.53;;
16845;SDS011;8539;53.188;8.696;2024-01-06T03:07:34;11.98;;;8.73;;
16845;SDS011;8539;53.188;8.696;2024-01-06T03:10:00;11.98;;;7.53;;
16845;SDS011;8539;53.188;8.696;2024-01-06T03:12:26;13.32;;;9.27;;
16845;SDS011;8539;53.188;8.696;2024-01-06T03:14:52;13.88;;;8.43;;
16845;SDS011;8539;53.188;8.696;2024-01-06T03:17:18;14.18;;;9.40;;
16845;SDS011;8539;53.188;8.696;2024-01-06T03:19:44;13.80;;;8.43;;
16845;SDS011;8539;53.188;8.696;2024-01-06T03:22:10;14.18;;;8.52;;
16845;SDS011;8539;53.188;8.696;2024-01-06T03:24:36;14.02;;;8.80;;
16845;SDS011;8539;53.188;8.696;2024-01-06T03:27:02;12.18;;;8.32;;
16845;SDS011;8539;53.188;8.696;2024-01-06T03:29:28;11.45;;;7.95;;
16845;SDS011;8539;53.188;8.696;2024-01-06T03:31:54;11.27;;;7.38;;
16845;SDS011;8539;53.188;8.696;2024-01-06T03:34:20;11.55;;;8.45;;
16845;SDS011;8539;53.188;8.696;2024-01-06T03:36:46;15.02;;;8.27;;
16845;SDS011;8539;53.188;8.696;2024-01-06T03:39:12;12.68;;;8.35;;
16845;SDS011;8539;53.188;8.696;2024-01-06T03:41:39;12.32;;;8.82;;
16845;SDS011;8539;53.188;8.696;2024-01-06T03:44:05;14.95;;;8.57;;
16845;SDS011;8539;53.188;8.696;2024-01-06T03:46:32;11.93;;;7.82;;
16845;SDS011;8539;53.188;8.696;2024-01-06T03:48:58;13.45;;;8.05;;
16845;SDS011;8539;53.188;8.696;2024-01-06T03:51:24;11.75;;;8.85;;
16845;SDS011;8539;53.188;8.696;2024-01-06T03:53:50;10.68;;;7.25;;
16845;SDS011;8539;53.188;8.696;2024-01-06T03:56:16;11.82;;;9.05;;
16845;SDS011;8539;53.188;8.696;2024-01-06T03:58:43;12.77;;;9.25;;
16845;SDS011;8539;53.188;8.696;2024-01-06T04:01:09;13.70;;;8.73;;
16845;SDS011;8539;53.188;8.696;2024-01-06T04:03:35;12.38;;;8.30;;
16845;SDS011;8539;53.188;8.696;2024-01-06T04:06:01;14.25;;;8.35;;
16845;SDS011;8539;53.188;8.696;2024-01-06T04:08:28;12.75;;;9.35;;
16845;SDS011;8539;53.188;8.696;2024-01-06T04:10:54;13.63;;;9.20;;
16845;SDS011;8539;53.188;8.696;2024-01-06T04:13:20;13.43;;;9.15;;
16845;SDS011;8539;53.188;8.696;2024-01-06T04:15:46;12.82;;;8.25;;
16845;SDS011;8539;53.188;8.696;2024-01-06T04:18:12;14.80;;;10.60;;
16845;SDS011;8539;53.188;8.696;2024-01-06T04:20:38;13.45;;;8.65;;
16845;SDS011;8539;53.188;8.696;2024-01-06T04:23:04;13.48;;;8.13;;
16845;SDS011;8539;53.188;8.696;2024-01-06T04:25:30;13.68;;;8.65;;
16845;SDS011;8539;53.188;8.696;2024-01-06T04:27:56;12.60;;;9.10;;
16845;SDS011;8539;53.188;8.696;2024-01-06T04:30:22;13.60;;;8.85;;
16845;SDS011;8539;53.188;8.696;2024-01-06T04:32:49;14.50;;;8.63;;
16845;SDS011;8539;53.188;8.696;2024-01-06T04:35:15;11.55;;;8.60;;
16845;SDS011;8539;53.188;8.696;2024-01-06T04:37:41;13.57;;;8.85;;
16845;SDS011;8539;53.188;8.696;2024-01-06T04:40:07;12.20;;;9.07;;
16845;SDS011;8539;53.188;8.696;2024-01-06T04:42:34;12.40;;;8.45;;
16845;SDS011;8539;53.188;8.696;2024-01-06T04:44:59;11.85;;;8.45;;
16845;SDS011;8539;53.188;8.696;2024-01-06T04:47:25;17.13;;;9.73;;
16845;SDS011;8539;53.188;8.696;2024-01-06T04:49:53;12.25;;;8.45;;
16845;SDS011;8539;53.188;8.696;2024-01-06T04:52:19;13.70;;;9.30;;
16845;SDS011;8539;53.188;8.696;2024-01-06T04:54:44;13.20;;;8.90;;
16845;SDS011;8539;53.188;8.696;2024-01-06T04:57:10;13.25;;;8.98;;
16845;SDS011;8539;53.188;8.696;2024-01-06T04:59:36;18.33;;;9.98;;
16845;SDS011;8539;53.188;8.696;2024-01-06T05:02:02;11.70;;;8.57;;
16845;SDS011;8539;53.188;8.696;2024-01-06T05:04:29;12.48;;;7.78;;
16845;SDS011;8539;53.188;8.696;2024-01-06T05:06:57;14.70;;;9.73;;
16845;SDS011;8539;53.188;8.696;2024-01-06T05:09:23;16.17;;;10.63;;
16845;SDS011;8539;53.188;8.696;2024-01-06T05:11:50;13.65;;;9.77;;
16845;SDS011;8539;53.188;8.696;2024-01-06T05:14:16;14.40;;;9.70;;
16845;SDS011;8539;53.188;8.696;2024-01-06T05:16:42;14.57;;;10.38;;
16845;SDS011;8539;53.188;8.696;2024-01-06T05:19:08;12.25;;;8.43;;
16845;SDS011;8539;53.188;8.696;2024-01-06T05:21:34;15.88;;;10.23;;
16845;SDS011;8539;53.188;8.696;2024-01-06T05:24:00;14.98;;;10.00;;
16845;SDS011;8539;53.188;8.696;2024-01-06T05:26:26;17.80;;;10.63;;
16845;SDS011;8539;53.188;8.696;2024-01-06T05:28:52;15.13;;;9.77;;
16845;SDS011;8539;53.188;8.696;2024-01-06T05:31:18;17.67;;;10.40;;
16845;SDS011;8539;53.188;8.696;2024-01-06T05:33:44;16.85;;;10.93;;
16845;SDS011;8539;53.188;8.696;2024-01-06T05:36:10;16.23;;;10.23;;
16845;SDS011;8539;53.188;8.696;2024-01-06T05:38:36;15.05;;;9.32;;
16845;SDS011;8539;53.188;8.696;2024-01-06T05:41:02;14.10;;;9.63;;
16845;SDS011;8539;53.188;8.696;2024-01-06T05:43:28;17.10;;;11.70;;
16845;SDS011;8539;53.188;8.696;2024-01-06T05:45:54;15.85;;;10.82;;
16845;SDS011;8539;53.188;8.696;2024-01-06T05:48:20;15.90;;;10.13;;
16845;SDS011;8539;53.188;8.696;2024-01-06T05:50:46;16.92;;;10.43;;
16845;SDS011;8539;53.188;8.696;2024-01-06T05:53:12;14.07;;;9.90;;
16845;SDS011;8539;53.188;8.696;2024-01-06T05:55:39;14.55;;;10.32;;
16845;SDS011;8539;53.188;8.696;2024-01-06T05:58:05;14.10;;;10.40;;
16845;SDS011;8539;53.188;8.696;2024-01-06T06:00:31;16.02;;;9.57;;
16845;SDS011;8539;53.188;8.696;2024-01-06T06:02:57;17.17;;;10.65;;
16845;SDS011;8539;53.188;8.696;2024-01-06T06:05:23;16.63;;;10.27;;
16845;SDS011;8539;53.188;8.696;2024-01-06T06:07:49;16.27;;;9.95;;
16845;SDS011;8539;53.188;8.696;2024-01-06T06:10:15;19.13;;;11.75;;
16845;SDS011;8539;53.188;8.696;2024-01-06T06:12:43;15.55;;;10.43;;
16845;SDS011;8539;53.188;8.696;2024-01-06T06:15:09;15.70;;;10.70;;
16845;SDS011;8539;53.188;8.696;2024-01-06T06:17:36;17.63;;;10.80;;
16845;SDS011;8539;53.188;8.696;2024-01-06T06:20:02;16.67;;;10.70;;
16845;SDS011;8539;53.188;8.696;2024-01-06T06:22:28;16.55;;;10.10;;
16845;SDS011;8539;53.188;8.696;2024-01-06T06:25:00;18.75;;;11.02;;
16845;SDS011;8539;53.188;8.696;2024-01-06T06:27:26;17.85;;;11.48;;
16845;SDS011;8539;53.188;8.696;2024-01-06T06:29:53;17.15;;;11.73;;
16845;SDS011;8539;53.188;8.696;2024-01-06T06:32:19;18.35;;;11.52;;
16845;SDS011;8539;53.188;8.696;2024-01-06T06:34:45;14.55;;;10.65;;
16845;SDS011;8539;53.188;8.696;2024-01-06T06:37:11;18.30;;;11.25;;
16845;SDS011;8539;53.188;8.696;2024-01-06T06:39:38;18.55;;;12.02;;
16845;SDS011;8539;53.188;8.696;2024-01-06T06:42:04;16.75;;;11.77;;
16845;SDS011;8539;53.188;8.696;2024-01-06T06:44:30;19.67;;;12.68;;
16845;SDS011;8539;53.188;8.696;2024-01-06T06:46:56;19.75;;;13.07;;
16845;SDS011;8539;53.188;8.696;2024-01-06T06:49:22;19.05;;;11.75;;
16845;SDS011;8539;53.188;8.696;2024-01-06T06:51:48;17.65;;;12.88;;
16845;SDS011;8539;53.188;8.696;2024-01-06T06:54:15;18.90;;;12.70;;
16845;SDS011;8539;53.188;8.696;2024-01-06T06:56:42;19.98;;;13.65;;
16845;SDS011;8539;53.188;8.696;2024-01-06T06:59:08;17.30;;;11.93;;
16845;SDS011;8539;53.188;8.696;2024-01-06T07:01:34;14.55;;;10.68;;
16845;SDS011;8539;53.188;8.696;2024-01-06T07:04:01;21.90;;;12.80;;
16845;SDS011;8539;53.188;8.696;2024-01-06T07:06:28;21.80;;;14.10;;
16845;SDS011;8539;53.188;8.696;2024-01-06T07:08:55;18.92;;;12.15;;
16845;SDS011;8539;53.188;8.696;2024-01-06T07:11:21;20.98;;;12.85;;
16845;SDS011;8539;53.188;8.696;2024-01-06T07:13:47;20.38;;;12.73;;
16845;SDS011;8539;53.188;8.696;2024-01-06T07:16:13;20.67;;;13.27;;
16845;SDS011;8539;53.188;8.696;2024-01-06T07:18:39;22.33;;;14.40;;
16845;SDS011;8539;53.188;8.696;2024-01-06T07:21:05;20.63;;;13.40;;
16845;SDS011;8539;53.188;8.696;2024-01-06T07:23:32;21.25;;;13.30;;
16845;SDS011;8539;53.188;8.696;2024-01-06T07:25:58;22.10;;;15.20;;
16845;SDS011;8539;53.188;8.696;2024-01-06T07:28:24;20.75;;;13.55;;
16845;SDS011;8539;53.188;8.696;2024-01-06T07:30:51;24.45;;;14.77;;
16845;SDS011;8539;53.188;8.696;2024-01-06T07:33:17;23.30;;;14.18;;
16845;SDS011;8539;53.188;8.696;2024-01-06T07:35:43;21.50;;;14.88;;
16845;SDS011;8539;53.188;8.696;2024-01-06T07:38:09;22.45;;;12.50;;
16845;SDS011;8539;53.188;8.696;2024-01-06T07:40:36;20.33;;;13.65;;
16845;SDS011;8539;53.188;8.696;2024-01-06T07:43:02;20.38;;;12.45;;
16845;SDS011;8539;53.188;8.696;2024-01-06T07:45:30;19.65;;;13.65;;
16845;SDS011;8539;53.188;8.696;2024-01-06T07:48:00;26.65;;;15.93;;
16845;SDS011;8539;53.188;8.696;2024-01-06T07:50:26;22.17;;;14.02;;
16845;SDS011;8539;53.188;8.696;2024-01-06T07:52:53;23.70;;;14.02;;
16845;SDS011;8539;53.188;8.696;2024-01-06T07:55:19;20.65;;;14.27;;
16845;SDS011;8539;53.188;8.696;2024-01-06T07:57:45;22.40;;;14.15;;
16845;SDS011;8539;53.188;8.696;2024-01-06T08:00:11;19.75;;;12.82;;
16845;SDS011;8539;53.188;8.696;2024-01-06T08:02:41;21.33;;;14.63;;
16845;SDS011;8539;53.188;8.696;2024-01-06T08:05:07;19.85;;;12.57;;
16845;SDS011;8539;53.188;8.696;2024-01-06T08:07:34;24.00;;;15.68;;
16845;SDS011;8539;53.188;8.696;2024-01-06T08:10:00;25.20;;;15.05;;
16845;SDS011;8539;53.188;8.696;2024-01-06T08:12:26;24.70;;;14.70;;
16845;SDS011;8539;53.188;8.696;2024-01-06T08:14:52;21.92;;;14.43;;
16845;SDS011;8539;53.188;8.696;2024-01-06T08:17:18;25.45;;;15.95;;
16845;SDS011;8539;53.188;8.696;2024-01-06T08:19:43;22.92;;;15.05;;
16845;SDS011;8539;53.188;8.696;2024-01-06T08:22:12;24.98;;;15.98;;
16845;SDS011;8539;53.188;8.696;2024-01-06T08:24:38;27.75;;;16.02;;
16845;SDS011;8539;53.188;8.696;2024-01-06T08:27:04;26.42;;;16.90;;
16845;SDS011;8539;53.188;8.696;2024-01-06T08:29:30;22.60;;;15.27;;
16845;SDS011;8539;53.188;8.696;2024-01-06T08:31:56;21.70;;;14.75;;
16845;SDS011;8539;53.188;8.696;2024-01-06T08:34:22;27.23;;;17.02;;
16845;SDS011;8539;53.188;8.696;2024-01-06T08:36:48;25.42;;;15.57;;
16845;SDS011;8539;53.188;8.696;2024-01-06T08:39:14;29.02;;;17.20;;
16845;SDS011;8539;53.188;8.696;2024-01-06T08:41:40;24.85;;;16.80;;
16845;SDS011;8539;53.188;8.696;2024-01-06T08:44:06;25.45;;;17.17;;
16845;SDS011;8539;53.188;8.696;2024-01-06T08:46:32;27.38;;;16.88;;
16845;SDS011;8539;53.188;8.696;2024-01-06T08:48:58;27.30;;;16.58;;
16845;SDS011;8539;53.188;8.696;2024-01-06T08:51:25;26.50;;;16.60;;
16845;SDS011;8539;53.188;8.696;2024-01-06T08:53:51;24.83;;;16.60;;
16845;SDS011;8539;53.188;8.696;2024-01-06T08:56:18;28.17;;;16.35;;
16845;SDS011;8539;53.188;8.696;2024-01-06T08:58:44;27.73;;;16.08;;
16845;SDS011;8539;53.188;8.696;2024-01-06T09:01:10;27.05;;;16.25;;
16845;SDS011;8539;53.188;8.696;2024-01-06T09:03:36;25.42;;;16.02;;
16845;SDS011;8539;53.188;8.696;2024-01-06T09:06:02;27.42;;;16.85;;
16845;SDS011;8539;53.188;8.696;2024-01-06T09:08:29;25.15;;;17.10;;
16845;SDS011;8539;53.188;8.696;2024-01-06T09:10:55;26.27;;;17.20;;
16845;SDS011;8539;53.188;8.696;2024-01-06T09:13:22;24.40;;;16.38;;
16845;SDS011;8539;53.188;8.696;2024-01-06T09:15:52;27.13;;;17.70;;
16845;SDS011;8539;53.188;8.696;2024-01-06T09:18:18;24.35;;;16.42;;
16845;SDS011;8539;53.188;8.696;2024-01-06T09:20:44;26.98;;;17.45;;
16845;SDS011;8539;53.188;8.696;2024-01-06T09:23:13;25.63;;;16.70;;
16845;SDS011;8539;53.188;8.696;2024-01-06T09:25:39;28.40;;;17.33;;
16845;SDS011;8539;53.188;8.696;2024-01-06T09:28:07;27.15;;;16.83;;
16845;SDS011;8539;53.188;8.696;2024-01-06T09:30:33;21.38;;;15.40;;
16845;SDS011;8539;53.188;8.696;2024-01-06T09:32:59;25.13;;;16.17;;
16845;SDS011;8539;53.188;8.696;2024-01-06T09:35:25;25.63;;;15.82;;
16845;SDS011;8539;53.188;8.696;2024-01-06T09:37:51;24.75;;;14.48;;
16845;SDS011;8539;53.188;8.696;2024-01-06T09:40:21;30.00;;;17.60;;
16845;SDS011;8539;53.188;8.696;2024-01-06T09:42:51;27.55;;;15.25;;
16845;SDS011;8539;53.188;8.696;2024-01-06T09:45:20;29.83;;;16.23;;
16845;SDS011;8539;53.188;8.696;2024-01-06T09:47:48;31.13;;;18.10;;
16845;SDS011;8539;53.188;8.696;2024-01-06T09:50:19;26.15;;;15.68;;
16845;SDS011;8539;53.188;8.696;2024-01-06T09:52:46;24.98;;;16.27;;
16845;SDS011;8539;53.188;8.696;2024-01-06T09:55:22;28.00;;;16.40;;
16845;SDS011;8539;53.188;8.696;2024-01-06T09:57:53;25.35;;;16.00;;
16845;SDS011;8539;53.188;8.696;2024-01-06T10:00:19;28.02;;;16.10;;
16845;SDS011;8539;53.188;8.696;2024-01-06T10:02:49;29.25;;;16.60;;
16845;SDS011;8539;53.188;8.696;2024-01-06T10:05:20;26.38;;;16.65;;
16845;SDS011;8539;53.188;8.696;2024-01-06T10:07:46;24.67;;;16.15;;
16845;SDS011;8539;53.188;8.696;2024-01-06T10:10:13;24.05;;;15.60;;
16845;SDS011;8539;53.188;8.696;2024-01-06T10:12:40;25.13;;;16.33;;
16845;SDS011;8539;53.188;8.696;2024-01-06T10:15:08;23.42;;;15.15;;
16845;SDS011;8539;53.188;8.696;2024-01-06T10:17:39;21.75;;;14.57;;
16845;SDS011;8539;53.188;8.696;2024-01-06T10:20:12;24.45;;;15.68;;
16845;SDS011;8539;53.188;8.696;2024-01-06T10:22:42;24.40;;;15.77;;
16845;SDS011;8539;53.188;8.696;2024-01-06T10:25:08;25.52;;;15.93;;
16845;SDS011;8539;53.188;8.696;2024-01-06T10:27:35;24.73;;;15.30;;
16845;SDS011;8539;53.188;8.696;2024-01-06T10:30:02;24.80;;;15.43;;
16845;SDS011;8539;53.188;8.696;2024-01-06T10:32:31;28.25;;;18.00;;
16845;SDS011;8539;53.188;8.696;2024-01-06T10:34:58;22.42;;;16.35;;
16845;SDS011;8539;53.188;8.696;2024-01-06T10:37:28;22.48;;;15.05;;
16845;SDS011;8539;53.188;8.696;2024-01-06T10:42:37;28.73;;;16.15;;
16845;SDS011;8539;53.188;8.696;2024-01-06T10:45:08;24.35;;;15.52;;
16845;SDS011;8539;53.188;8.696;2024-01-06T10:47:36;22.85;;;15.18;;
16845;SDS011;8539;53.188;8.696;2024-01-06T10:50:03;27.60;;;17.55;;
16845;SDS011;8539;53.188;8.696;2024-01-06T10:52:29;21.08;;;14.93;;
16845;SDS011;8539;53.188;8.696;2024-01-06T10:54:56;24.92;;;15.60;;
16845;SDS011;8539;53.188;8.696;2024-01-06T10:57:23;28.48;;;15.45;;
16845;SDS011;8539;53.188;8.696;2024-01-06T10:59:50;26.15;;;17.13;;
16845;SDS011;8539;53.188;8.696;2024-01-06T11:02:18;26.05;;;15.93;;
16845;SDS011;8539;53.188;8.696;2024-01-06T11:04:47;25.77;;;15.88;;
16845;SDS011;8539;53.188;8.696;2024-01-06T11:07:18;26.08;;;15.00;;
16845;SDS011;8539;53.188;8.696;2024-01-06T11:09:50;24.98;;;15.65;;
16845;SDS011;8539;53.188;8.696;2024-01-06T11:12:32;22.38;;;14.80;;
16845;SDS011;8539;53.188;8.696;2024-01-06T11:14:58;23.02;;;13.45;;
16845;SDS011;8539;53.188;8.696;2024-01-06T11:20:19;26.45;;;17.33;;
16845;SDS011;8539;53.188;8.696;2024-01-06T11:22:46;23.70;;;15.13;;
16845;SDS011;8539;53.188;8.696;2024-01-06T11:25:16;27.58;;;14.57;;
16845;SDS011;8539;53.188;8.696;2024-01-06T11:27:45;21.88;;;14.25;;
16845;SDS011;8539;53.188;8.696;2024-01-06T11:30:22;25.63;;;15.55;;
16845;SDS011;8539;53.188;8.696;2024-01-06T11:32:54;24.40;;;14.95;;
16845;SDS011;8539;53.188;8.696;2024-01-06T11:35:25;23.98;;;15.98;;
16845;SDS011;8539;53.188;8.696;2024-01-06T11:37:53;24.02;;;15.00;;
16845;SDS011;8539;53.188;8.696;2024-01-06T11:42:52;25.15;;;15.68;;
16845;SDS011;8539;53.188;8.696;2024-01-06T11:45:27;26.02;;;15.80;;
16845;SDS011;8539;53.188;8.696;2024-01-06T11:47:54;26.65;;;14.63;;
16845;SDS011;8539;53.188;8.696;2024-01-06T11:50:25;25.80;;;15.98;;
16845;SDS011;8539;53.188;8.696;2024-01-06T11:52:52;23.13;;;15.73;;
16845;SDS011;8539;53.188;8.696;2024-01-06T11:55:19;26.70;;;16.10;;
16845;SDS011;8539;53.188;8.696;2024-01-06T11:57:45;24.42;;;14.70;;
16845;SDS011;8539;53.188;8.696;2024-01-06T12:00:12;24.95;;;14.63;;
16845;SDS011;8539;53.188;8.696;2024-01-06T12:02:41;30.05;;;14.85;;
16845;SDS011;8539;53.188;8.696;2024-01-06T12:05:14;25.75;;;12.85;;
16845;SDS011;8539;53.188;8.696;2024-01-06T12:07:41;21.80;;;13.57;;
16845;SDS011;8539;53.188;8.696;2024-01-06T12:10:08;24.15;;;15.48;;
16845;SDS011;8539;53.188;8.696;2024-01-06T12:12:35;27.40;;;14.98;;
16845;SDS011;8539;53.188;8.696;2024-01-06T12:15:01;20.75;;;13.48;;
16845;SDS011;8539;53.188;8.696;2024-01-06T12:17:30;25.00;;;13.18;;
16845;SDS011;8539;53.188;8.696;2024-01-06T12:19:56;23.85;;;14.18;;
16845;SDS011;8539;53.188;8.696;2024-01-06T12:22:22;22.65;;;14.95;;
16845;SDS011;8539;53.188;8.696;2024-01-06T12:24:49;21.50;;;13.85;;
16845;SDS011;8539;53.188;8.696;2024-01-06T12:27:16;24.10;;;12.55;;
16845;SDS011;8539;53.188;8.696;2024-01-06T12:29:43;19.77;;;12.98;;
16845;SDS011;8539;53.188;8.696;2024-01-06T12:32:09;23.23;;;13.57;;
16845;SDS011;8539;53.188;8.696;2024-01-06T12:34:36;22.88;;;13.45;;
16845;SDS011;8539;53.188;8.696;2024-01-06T12:37:02;22.08;;;13.50;;
16845;SDS011;8539;53.188;8.696;2024-01-06T12:39:29;26.42;;;15.55;;
16845;SDS011;8539;53.188;8.696;2024-01-06T12:41:56;23.00;;;14.05;;
16845;SDS011;8539;53.188;8.696;2024-01-06T12:44:22;23.27;;;14.63;;
16845;SDS011;8539;53.188;8.696;2024-01-06T12:46:51;20.75;;;12.48;;
16845;SDS011;8539;53.188;8.696;2024-01-06T12:49:17;21.17;;;13.63;;
16845;SDS011;8539;53.188;8.696;2024-01-06T12:51:43;19.80;;;12.10;;
16845;SDS011;8539;53.188;8.696;2024-01-06T12:54:09;21.17;;;12.30;;
16845;SDS011;8539;53.188;8.696;2024-01-06T12:56:35;18.52;;;12.23;;
16845;SDS011;8539;53.188;8.696;2024-01-06T12:59:01;21.35;;;12.68;;
16845;SDS011;8539;53.188;8.696;2024-01-06T13:01:27;21.42;;;11.95;;
16845;SDS011;8539;53.188;8.696;2024-01-06T13:03:53;20.75;;;12.73;;
16845;SDS011;8539;53.188;8.696;2024-01-06T13:06:19;20.40;;;13.07;;
16845;SDS011;8539;53.188;8.696;2024-01-06T13:08:46;21.10;;;13.15;;
16845;SDS011;8539;53.188;8.696;2024-01-06T13:11:12;24.73;;;14.13;;
16845;SDS011;8539;53.188;8.696;2024-01-06T13:13:38;24.23;;;13.57;;
16845;SDS011;8539;53.188;8.696;2024-01-06T13:16:04;18.52;;;13.27;;
16845;SDS011;8539;53.188;8.696;2024-01-06T13:18:31;26.20;;;15.00;;
16845;SDS011;8539;53.188;8.696;2024-01-06T13:20:57;24.00;;;14.95;;
16845;SDS011;8539;53.188;8.696;2024-01-06T13:23:24;20.38;;;13.98;;
16845;SDS011;8539;53.188;8.696;2024-01-06T13:25:50;24.98;;;14.55;;
16845;SDS011;8539;53.188;8.696;2024-01-06T13:28:16;21.38;;;14.13;;
16845;SDS011;8539;53.188;8.696;2024-01-06T13:30:42;21.83;;;14.52;;
16845;SDS011;8539;53.188;8.696;2024-01-06T13:33:08;24.27;;;14.52;;
16845;SDS011;8539;53.188;8.696;2024-01-06T13:35:35;21.58;;;14.85;;
16845;SDS011;8539;53.188;8.696;2024-01-06T13:38:04;24.27;;;14.23;;
16845;SDS011;8539;53.188;8.696;2024-01-06T13:40:30;22.85;;;14.13;;
16845;SDS011;8539;53.188;8.696;2024-01-06T13:42:56;26.98;;;15.27;;
16845;SDS011;8539;53.188;8.696;2024-01-06T13:45:23;28.10;;;15.32;;
16845;SDS011;8539;53.188;8.696;2024-01-06T13:47:49;25.90;;;14.32;;
16845;SDS011;8539;53.188;8.696;2024-01-06T13:50:18;27.13;;;14.13;;
16845;SDS011;8539;53.188;8.696;2024-01-06T13:52:45;27.63;;;15.45;;
16845;SDS011;8539;53.188;8.696;2024-01-06T13:55:11;23.98;;;14.68;;
16845;SDS011;8539;53.188;8.696;2024-01-06T13:57:37;26.15;;;15.90;;
16845;SDS011;8539;53.188;8.696;2024-01-06T14:00:09;27.58;;;15.68;;
16845;SDS011;8539;53.188;8.696;2024-01-06T14:02:36;24.05;;;15.73;;
16845;SDS011;8539;53.188;8.696;2024-01-06T14:05:03;24.88;;;15.88;;
16845;SDS011;8539;53.188;8.696;2024-01-06T14:07:30;24.25;;;14.60;;
16845;SDS011;8539;53.188;8.696;2024-01-06T14:09:56;25.42;;;14.80;;
16845;SDS011;8539;53.188;8.696;2024-01-06T14:12:22;25.65;;;15.10;;
16845;SDS011;8539;53.188;8.696;2024-01-06T14:14:48;26.15;;;15.93;;
16845;SDS011;8539;53.188;8.696;2024-01-06T14:17:14;22.67;;;15.52;;
16845;SDS011;8539;53.188;8.696;2024-01-06T14:19:40;23.63;;;15.00;;
16845;SDS011;8539;53.188;8.696;2024-01-06T14:22:07;26.02;;;15.43;;
16845;SDS011;8539;53.188;8.696;2024-01-06T14:24:33;21.75;;;14.45;;
16845;SDS011;8539;53.188;8.696;2024-01-06T14:27:00;25.73;;;15.32;;
16845;SDS011;8539;53.188;8.696;2024-01-06T14:29:28;20.10;;;12.60;;
16845;SDS011;8539;53.188;8.696;2024-01-06T14:31:55;23.33;;;14.27;;
16845;SDS011;8539;53.188;8.696;2024-01-06T14:34:21;23.33;;;15.02;;
16845;SDS011;8539;53.188;8.696;2024-01-06T14:36:47;22.20;;;13.45;;
16845;SDS011;8539;53.188;8.696;2024-01-06T14:39:16;22.00;;;14.50;;
16845;SDS011;8539;53.188;8.696;2024-01-06T14:41:42;21.75;;;13.35;;
16845;SDS011;8539;53.188;8.696;2024-01-06T14:44:08;22.13;;;14.52;;